Time;durP1;ratioP1;P1;durP2;ratioP2;P2;SDS_P1;SDS_P2;PMS_P1;PMS_P2;Temp;Humidity;BMP_temperature;BMP_pressure;BME280_temperature;BME280_humidity;BME280_pressure;Samples;Min_cycle;Max_cycle;Signal;HPM_P1;HPM_P2
2024/02/06 06:32:21;;;;;;;;;15.25;13.00;;;;;;;;6420733;46;9097;-60
2024/02/06 06:38:24;;;;;;;;;13.00;10.00;;;;;;;;6491639;39;8850;-59
2024/02/06 06:44:26;;;;;;;;;17.50;13.50;;;;;;;;6490733;39;8946;-61
2024/02/06 06:50:31;;;;;;;;;13.75;12.25;;;;;;;;6490266;39;8861;-60
2024/02/06 06:56:33;;;;;;;;;16.00;16.00;;;;;;;;6492006;39;8864;-59
2024/02/06 07:02:35;;;;;;;;;18.50;16.50;;;;;;;;6489231;39;9533;-60
2024/02/06 07:08:38;;;;;;;;;14.00;11.75;;;;;;;;6491586;46;8895;-61
2024/02/06 07:14:41;;;;;;;;;15.00;15.00;;;;;;;;6491464;39;8961;-60
2024/02/06 07:20:44;;;;;;;;;11.25;10.00;;;;;;;;6490052;39;8958;-59
2024/02/06 07:26:47;;;;;;;;;18.50;14.00;;;;;;;;6491609;31;9137;-62
2024/02/06 07:32:49;;;;;;;;;10.50;9.75;;;;;;;;6490388;46;8971;-60
2024/02/06 07:38:51;;;;;;;;;14.50;12.00;;;;;;;;6491093;46;8817;-61
2024/02/06 07:44:53;;;;;;;;;18.25;18.25;;;;;;;;6489235;46;8946;-61
2024/02/06 07:50:59;;;;;;;;;18.25;17.25;;;;;;;;6489511;39;8854;-60
2024/02/06 07:57:02;;;;;;;;;14.50;11.00;;;;;;;;6490261;46;8906;-62
2024/02/06 08:03:05;;;;;;;;;17.25;16.50;;;;;;;;6490016;31;8924;-61
2024/02/06 08:09:09;;;;;;;;;17.00;16.50;;;;;;;;6487399;39;9542;-61
2024/02/06 08:15:11;;;;;;;;;16.33;14.67;;;;;;;;6489392;39;9565;-60
2024/02/06 08:21:14;;;;;;;;;11.33;11.33;;;;;;;;6487700;39;8958;-61
2024/02/06 08:27:16;;;;;;;;;21.67;20.00;;;;;;;;6486183;39;8916;-63
2024/02/06 08:33:18;;;;;;;;;16.00;15.00;;;;;;;;6486502;39;9006;-59
2024/02/06 08:39:21;;;;;;;;;21.00;18.00;;;;;;;;6488647;39;9504;-61
2024/02/06 08:45:23;;;;;;;;;14.67;14.33;;;;;;;;6486179;39;8864;-61
2024/02/06 08:51:26;;;;;;;;;17.00;13.67;;;;;;;;6306402;39;10001433;-61
2024/02/06 08:57:28;;;;;;;;;16.33;16.33;;;;;;;;6487662;39;8887;-61
2024/02/06 09:03:35;;;;;;;;;18.00;16.50;;;;;;;;6485351;46;8888;-62
2024/02/06 09:09:39;;;;;;;;;17.00;14.00;;;;;;;;6486513;39;8882;-62
2024/02/06 09:15:41;;;;;;;;;19.33;16.00;;;;;;;;6489099;46;8892;-62
2024/02/06 09:21:46;;;;;;;;;23.00;21.00;;;;;;;;6487127;39;8968;-64
2024/02/06 09:27:48;;;;;;;;;17.33;12.67;;;;;;;;6486027;46;8974;-59
2024/02/06 09:33:53;;;;;;;;;20.67;20.33;;;;;;;;6485538;39;8929;-59
2024/02/06 09:39:56;;;;;;;;;12.67;8.67;;;;;;;;6487816;39;8866;-61
2024/02/06 09:46:00;;;;;;;;;16.67;13.67;;;;;;;;6488340;46;8965;-61
2024/02/06 09:52:03;;;;;;;;;16.33;16.33;;;;;;;;6489987;31;8864;-62
2024/02/06 09:58:07;;;;;;;;;18.67;17.00;;;;;;;;6490115;31;8984;-62
2024/02/06 10:04:14;;;;;;;;;11.33;10.33;;;;;;;;6489547;46;8888;-61
2024/02/06 10:10:19;;;;;;;;;14.00;11.33;;;;;;;;6489695;31;8933;-61
2024/02/06 10:16:21;;;;;;;;;16.00;14.67;;;;;;;;6489387;39;8888;-59
2024/02/06 10:22:30;;;;;;;;;19.00;15.00;;;;;;;;6489629;39;8873;-60
2024/02/06 10:28:32;;;;;;;;;13.67;11.00;;;;;;;;6490166;39;9002;-62
2024/02/06 10:34:35;;;;;;;;;10.33;10.33;;;;;;;;6489676;31;9025;-61
2024/02/06 10:40:39;;;;;;;;;13.33;12.00;;;;;;;;6490127;39;8921;-60
2024/02/06 10:46:43;;;;;;;;;10.67;10.67;;;;;;;;6488453;31;8924;-61
2024/02/06 10:52:46;;;;;;;;;20.00;17.67;;;;;;;;6487060;46;8927;-60
2024/02/06 10:58:57;;;;;;;;;21.00;19.33;;;;;;;;6484956;31;8991;-61
2024/02/06 11:05:21;;;;;;;;;21.33;19.00;;;;;;;;6487442;39;8840;-61
2024/02/06 11:11:24;;;;;;;;;17.00;15.00;;;;;;;;6488705;46;8838;-60
2024/02/06 11:17:30;;;;;;;;;10.33;9.67;;;;;;;;6485020;39;8872;-61
2024/02/06 11:23:33;;;;;;;;;21.00;20.00;;;;;;;;6486849;31;9618;-58
2024/02/06 11:29:35;;;;;;;;;22.00;20.33;;;;;;;;6485170;31;9117;-61
2024/02/06 11:35:40;;;;;;;;;20.67;20.00;;;;;;;;6487068;31;8920;-61
2024/02/06 11:41:43;;;;;;;;;19.67;14.00;;;;;;;;6487314;39;8896;-57
2024/02/06 11:48:02;;;;;;;;;17.33;16.67;;;;;;;;6484164;39;8917;-61
2024/02/06 11:54:12;;;;;;;;;17.33;14.33;;;;;;;;6486601;46;8914;-61
2024/02/06 12:00:17;;;;;;;;;14.67;14.33;;;;;;;;6483966;46;8893;-59
2024/02/06 12:06:21;;;;;;;;;10.00;10.00;;;;;;;;6484810;31;8884;-61
2024/02/06 12:12:23;;;;;;;;;13.33;13.00;;;;;;;;6487134;39;8980;-61
2024/02/06 12:18:26;;;;;;;;;15.00;15.00;;;;;;;;6487363;39;8848;-59
2024/02/06 12:24:28;;;;;;;;;15.75;12.00;;;;;;;;6488500;39;8890;-63
2024/02/06 12:30:31;;;;;;;;;14.75;10.50;;;;;;;;6486584;31;9421;-62
2024/02/06 12:36:37;;;;;;;;;10.00;10.00;;;;;;;;6488277;39;8897;-60
2024/02/06 12:42:46;;;;;;;;;7.75;7.75;;;;;;;;6488733;39;8893;-60
2024/02/06 12:48:51;;;;;;;;;13.67;12.33;;;;;;;;6488988;39;9635;-60
2024/02/06 12:54:55;;;;;;;;;15.67;14.67;;;;;;;;6490455;39;8856;-60
2024/02/06 13:00:59;;;;;;;;;11.50;11.50;;;;;;;;6488647;39;9549;-57
2024/02/06 13:07:02;;;;;;;;;7.50;7.00;;;;;;;;6490774;39;8880;-62
2024/02/06 13:13:10;;;;;;;;;12.67;12.67;;;;;;;;6487533;39;9521;-62
2024/02/06 13:19:22;;;;;;;;;14.25;12.75;;;;;;;;6487415;31;8875;-60
2024/02/06 13:25:24;;;;;;;;;9.00;6.75;;;;;;;;6490122;31;8898;-61
2024/02/06 13:31:29;;;;;;;;;5.00;5.00;;;;;;;;6489223;46;8955;-59
2024/02/06 13:37:38;;;;;;;;;12.67;11.00;;;;;;;;6489735;39;8881;-61
2024/02/06 13:43:43;;;;;;;;;11.67;10.67;;;;;;;;6489496;39;9023;-59
2024/02/06 13:49:46;;;;;;;;;18.00;15.33;;;;;;;;6489663;39;9027;-60
2024/02/06 13:55:50;;;;;;;;;9.75;9.25;;;;;;;;6489512;39;9010;-61
2024/02/06 14:01:53;;;;;;;;;11.50;11.00;;;;;;;;6489005;39;9563;-61
2024/02/06 14:07:55;;;;;;;;;9.75;7.50;;;;;;;;6489366;46;8986;-60
2024/02/06 14:13:58;;;;;;;;;11.00;11.00;;;;;;;;6489115;31;8944;-60
2024/02/06 14:20:02;;;;;;;;;10.00;10.00;;;;;;;;6488680;39;8851;-61
2024/02/06 14:26:05;;;;;;;;;4.50;4.00;;;;;;;;6488186;46;8969;-61
2024/02/06 14:32:08;;;;;;;;;12.33;12.33;;;;;;;;6488331;31;9014;-60
2024/02/06 14:38:12;;;;;;;;;12.00;9.00;;;;;;;;6488481;31;8886;-57
2024/02/06 14:44:15;;;;;;;;;7.67;5.67;;;;;;;;6489206;31;8922;-59
2024/02/06 14:50:17;;;;;;;;;10.00;9.67;;;;;;;;6487933;39;9043;-59
2024/02/06 14:56:20;;;;;;;;;7.00;6.67;;;;;;;;6490082;31;8920;-59
2024/02/06 15:02:22;;;;;;;;;11.33;10.33;;;;;;;;6489380;31;8853;-60
2024/02/06 15:08:24;;;;;;;;;14.00;14.00;;;;;;;;6490148;31;8828;-60
2024/02/06 15:14:26;;;;;;;;;17.67;16.67;;;;;;;;6486087;39;8882;-61
2024/02/06 15:20:34;;;;;;;;;7.67;7.67;;;;;;;;6488526;31;9684;-61
2024/02/06 15:26:39;;;;;;;;;12.67;11.00;;;;;;;;6490575;39;8984;-60
2024/02/06 15:32:42;;;;;;;;;16.00;14.67;;;;;;;;6489724;39;8919;-61
2024/02/06 15:38:45;;;;;;;;;15.67;12.00;;;;;;;;6489859;46;8877;-60
2024/02/06 15:44:48;;;;;;;;;16.00;13.67;;;;;;;;6489608;39;8950;-61
2024/02/06 15:50:51;;;;;;;;;16.67;14.33;;;;;;;;6488964;39;9504;-62
2024/02/06 15:56:56;;;;;;;;;15.00;15.00;;;;;;;;6489851;46;8952;-60
2024/02/06 16:03:00;;;;;;;;;13.50;13.50;;;;;;;;6489196;31;8889;-60
2024/02/06 16:09:03;;;;;;;;;18.33;16.33;;;;;;;;6490012;39;8910;-61
2024/02/06 16:15:07;;;;;;;;;26.00;22.33;;;;;;;;6488835;47;8905;-61
2024/02/06 16:21:13;;;;;;;;;29.00;24.67;;;;;;;;6493149;31;8900;-59
2024/02/06 16:27:15;;;;;;;;;29.33;27.00;;;;;;;;6493950;39;9016;-60
2024/02/06 16:33:18;;;;;;;;;27.67;24.67;;;;;;;;6494521;39;8972;-60
2024/02/06 16:39:22;;;;;;;;;47.50;37.25;;;;;;;;6494310;39;8905;-60
2024/02/06 16:45:25;;;;;;;;;33.00;29.00;;;;;;;;6493237;39;8966;-62
2024/02/06 16:51:29;;;;;;;;;24.00;22.33;;;;;;;;6493871;39;8921;-60
2024/02/06 16:57:31;;;;;;;;;28.33;26.00;;;;;;;;6494100;39;8882;-60
2024/02/06 17:03:34;;;;;;;;;33.67;32.67;;;;;;;;6493044;39;8858;-60
2024/02/06 17:09:37;;;;;;;;;33.67;30.00;;;;;;;;6493278;39;8935;-63
2024/02/06 17:15:45;;;;;;;;;39.33;36.67;;;;;;;;6490153;39;8893;-65
2024/02/06 17:21:48;;;;;;;;;34.67;33.67;;;;;;;;6489549;46;8900;-63
2024/02/06 17:27:51;;;;;;;;;34.33;33.33;;;;;;;;6492089;31;9003;-64
2024/02/06 17:33:53;;;;;;;;;32.25;29.00;;;;;;;;6489976;46;9039;-63
2024/02/06 17:39:56;;;;;;;;;31.67;28.00;;;;;;;;6490879;39;8964;-63
2024/02/06 17:45:59;;;;;;;;;25.33;25.00;;;;;;;;6490243;39;8908;-61
2024/02/06 17:52:03;;;;;;;;;38.00;31.33;;;;;;;;6490062;46;8909;-63
2024/02/06 17:58:05;;;;;;;;;30.00;28.67;;;;;;;;6490011;39;8973;-62
2024/02/06 18:04:10;;;;;;;;;39.00;34.75;;;;;;;;6490254;31;8893;-63
2024/02/06 18:10:13;;;;;;;;;33.75;33.75;;;;;;;;6490866;31;9706;-64
2024/02/06 18:16:16;;;;;;;;;50.00;40.25;;;;;;;;6489759;46;8945;-63
2024/02/06 18:22:25;;;;;;;;;36.50;35.00;;;;;;;;6490182;46;8867;-62
2024/02/06 18:28:28;;;;;;;;;43.25;37.25;;;;;;;;6489550;39;8929;-62
2024/02/06 18:34:30;;;;;;;;;38.50;34.25;;;;;;;;6489493;39;8975;-62
2024/02/06 18:40:35;;;;;;;;;47.50;40.50;;;;;;;;6490194;46;8944;-62
2024/02/06 18:46:39;;;;;;;;;41.75;38.00;;;;;;;;6489767;39;8900;-63
2024/02/06 18:52:42;;;;;;;;;41.25;37.00;;;;;;;;6489629;46;8842;-64
2024/02/06 18:58:46;;;;;;;;;38.75;36.50;;;;;;;;6489946;39;9574;-63
2024/02/06 19:04:50;;;;;;;;;24.00;21.75;;;;;;;;6488410;39;8881;-63
2024/02/06 19:10:53;;;;;;;;;37.00;36.25;;;;;;;;6489541;46;8880;-62
2024/02/06 19:16:58;;;;;;;;;44.00;39.75;;;;;;;;6488830;39;8917;-64
2024/02/06 19:23:02;;;;;;;;;44.25;38.75;;;;;;;;6490339;39;8910;-65
2024/02/06 19:29:05;;;;;;;;;45.25;36.75;;;;;;;;6488682;39;9041;-63
2024/02/06 19:35:09;;;;;;;;;44.75;41.50;;;;;;;;6490042;46;8916;-62
2024/02/06 19:41:11;;;;;;;;;42.00;39.25;;;;;;;;6489845;39;8936;-62
2024/02/06 19:47:17;;;;;;;;;52.75;42.50;;;;;;;;6490073;39;9005;-62
2024/02/06 19:53:20;;;;;;;;;42.50;38.50;;;;;;;;6489225;46;8897;-61
2024/02/06 19:59:23;;;;;;;;;45.75;40.75;;;;;;;;6489058;46;8887;-62
2024/02/06 20:05:25;;;;;;;;;51.00;42.25;;;;;;;;6488523;47;8854;-62
2024/02/06 20:11:32;;;;;;;;;49.00;43.00;;;;;;;;6488661;47;8954;-61
2024/02/06 20:17:35;;;;;;;;;49.00;42.25;;;;;;;;6489918;39;8891;-64
2024/02/06 20:23:38;;;;;;;;;47.75;40.75;;;;;;;;6489661;39;9027;-62
2024/02/06 20:29:41;;;;;;;;;47.00;41.50;;;;;;;;6487649;47;8980;-62
2024/02/06 20:35:43;;;;;;;;;49.25;44.25;;;;;;;;6490544;39;8884;-63
2024/02/06 20:41:46;;;;;;;;;51.50;44.25;;;;;;;;6489570;39;8893;-63
2024/02/06 20:47:48;;;;;;;;;51.75;44.50;;;;;;;;6488798;39;9008;-63
2024/02/06 20:53:51;;;;;;;;;54.25;43.00;;;;;;;;6488684;47;8885;-62
2024/02/06 20:59:57;;;;;;;;;44.75;40.50;;;;;;;;6486909;47;9013;-65
2024/02/06 21:05:59;;;;;;;;;50.50;44.00;;;;;;;;6490459;39;8845;-61
2024/02/06 21:12:01;;;;;;;;;56.00;47.50;;;;;;;;6490983;39;8892;-64
2024/02/06 21:18:03;;;;;;;;;57.75;48.00;;;;;;;;6491916;39;8893;-62
2024/02/06 21:24:06;;;;;;;;;58.00;46.00;;;;;;;;6491495;31;8932;-62
2024/02/06 21:30:11;;;;;;;;;53.25;46.25;;;;;;;;6490406;46;8929;-63
2024/02/06 21:36:13;;;;;;;;;55.00;45.00;;;;;;;;6490467;31;8892;-63
2024/02/06 21:42:17;;;;;;;;;55.00;44.00;;;;;;;;6490357;39;8889;-61
2024/02/06 21:48:20;;;;;;;;;54.75;45.50;;;;;;;;6490475;39;9027;-64
2024/02/06 21:54:23;;;;;;;;;48.25;43.00;;;;;;;;6490047;39;9632;-61
2024/02/06 22:00:26;;;;;;;;;55.25;46.00;;;;;;;;6491930;31;9745;-63
2024/02/06 22:06:29;;;;;;;;;52.75;43.50;;;;;;;;6490342;46;8940;-63
2024/02/06 22:12:32;;;;;;;;;50.00;42.75;;;;;;;;6489119;39;8868;-63
2024/02/06 22:18:34;;;;;;;;;51.25;42.75;;;;;;;;6489814;46;10077;-62
2024/02/06 22:24:44;;;;;;;;;47.75;41.00;;;;;;;;6490945;39;9622;-62
2024/02/06 22:30:46;;;;;;;;;55.00;45.25;;;;;;;;6489345;31;8969;-62
2024/02/06 22:36:48;;;;;;;;;51.75;43.75;;;;;;;;6491155;39;8880;-62
2024/02/06 22:42:51;;;;;;;;;52.50;44.00;;;;;;;;6489482;31;8893;-63
2024/02/06 22:48:55;;;;;;;;;44.25;39.00;;;;;;;;6489713;46;9027;-65
2024/02/06 22:54:58;;;;;;;;;46.00;40.75;;;;;;;;6489886;39;8909;-62
2024/02/06 23:01:00;;;;;;;;;57.25;46.75;;;;;;;;6491172;39;8884;-61
2024/02/06 23:07:05;;;;;;;;;54.00;45.00;;;;;;;;6490272;39;8885;-61
2024/02/06 23:13:07;;;;;;;;;55.00;44.50;;;;;;;;6490564;31;8899;-62
2024/02/06 23:19:10;;;;;;;;;52.75;44.50;;;;;;;;6489996;39;8850;-64
2024/02/06 23:25:16;;;;;;;;;60.75;49.50;;;;;;;;6489914;31;8928;-61
2024/02/06 23:31:18;;;;;;;;;54.25;45.25;;;;;;;;6489251;46;8981;-63
2024/02/06 23:37:22;;;;;;;;;56.50;46.25;;;;;;;;6490643;39;9556;-61
2024/02/06 23:43:24;;;;;;;;;45.75;42.25;;;;;;;;6489741;39;8889;-61
2024/02/06 23:49:28;;;;;;;;;53.00;43.50;;;;;;;;6489800;46;8828;-62
2024/02/06 23:55:31;;;;;;;;;48.75;43.25;;;;;;;;6489365;39;9513;-61
